Time;durP1;ratioP1;P1;durP2;ratioP2;P2;SDS_P1;SDS_P2;PMS_P1;PMS_P2;Temp;Humidity;BMP_temperature;BMP_pressure;BME280_temperature;BME280_humidity;BME280_pressure;Samples;Min_cycle;Max_cycle;Signal;HPM_P1;HPM_P2
2022/11/07 00:01:37;;;;;;;17.85;8.15;;;;;;;9.30;100.00;100751.31;5033052;28;20120;-71
2022/11/07 00:04:03;;;;;;;15.63;8.05;;;;;;;9.25;100.00;100722.44;5033220;28;20116;-71
2022/11/07 00:06:28;;;;;;;22.58;8.02;;;;;;;9.31;100.00;100725.47;5032868;28;20052;-71
2022/11/07 00:08:54;;;;;;;20.95;8.52;;;;;;;9.39;100.00;100740.47;5032820;28;20060;-73
2022/11/07 00:11:20;;;;;;;20.80;7.88;;;;;;;9.41;100.00;100744.63;5033111;28;20028;-71
2022/11/07 00:13:45;;;;;;;16.80;7.35;;;;;;;9.25;100.00;100731.00;5032808;28;20033;-72
2022/11/07 00:16:11;;;;;;;17.40;7.47;;;;;;;9.43;100.00;100749.66;5015357;28;20269;-73
2022/11/07 00:18:37;;;;;;;17.08;7.50;;;;;;;9.51;100.00;100746.66;5032839;28;20422;-72
2022/11/07 00:21:03;;;;;;;12.57;6.93;;;;;;;9.56;100.00;100753.19;5033126;28;20116;-72
2022/11/07 00:23:29;;;;;;;19.15;8.13;;;;;;;9.61;100.00;100752.91;5032613;28;20028;-72
2022/11/07 00:26:00;;;;;;;20.52;8.00;;;;;;;9.65;100.00;100754.41;5032802;28;20021;-72
2022/11/07 00:28:26;;;;;;;17.23;6.97;;;;;;;9.52;100.00;100743.97;5014861;28;20025;-72
2022/11/07 00:30:51;;;;;;;17.33;7.13;;;;;;;9.54;100.00;100752.47;5032774;28;20113;-72
2022/11/07 00:33:16;;;;;;;19.17;7.13;;;;;;;9.43;100.00;100750.50;5032849;28;20064;-72
2022/11/07 00:35:41;;;;;;;18.45;8.00;;;;;;;9.37;100.00;100761.19;5032791;28;20037;-72
2022/11/07 00:38:07;;;;;;;20.30;7.20;;;;;;;9.27;100.00;100754.91;5032495;28;20052;-71
2022/11/07 00:40:32;;;;;;;17.35;6.95;;;;;;;9.24;100.00;100759.41;5032496;28;20025;-73
2022/11/07 00:42:57;;;;;;;18.17;7.03;;;;;;;9.15;100.00;100761.63;5032508;28;20361;-72
2022/11/07 00:45:23;;;;;;;17.90;7.25;;;;;;;9.11;100.00;100767.84;5032674;28;20554;-71
2022/11/07 00:47:48;;;;;;;18.58;7.00;;;;;;;9.10;100.00;100758.47;5032846;28;20057;-72
2022/11/07 00:50:13;;;;;;;18.65;7.65;;;;;;;9.08;100.00;100773.19;5032591;28;20140;-73
2022/11/07 00:52:39;;;;;;;17.45;7.70;;;;;;;9.06;100.00;100766.47;5033256;28;20052;-72
2022/11/07 00:55:05;;;;;;;24.02;7.88;;;;;;;8.96;100.00;100757.63;5036015;28;20033;-73
2022/11/07 00:57:30;;;;;;;22.75;7.80;;;;;;;8.99;100.00;100760.84;5036387;28;20080;-72
2022/11/07 00:59:55;;;;;;;18.92;6.68;;;;;;;9.01;100.00;100774.44;5036133;28;20036;-72
2022/11/07 01:02:21;;;;;;;17.92;6.30;;;;;;;9.04;100.00;100771.69;5036355;28;20037;-72
2022/11/07 01:07:32;;;;;;;15.77;7.10;;;;;;;8.95;100.00;100772.25;5021500;28;20059;-76
2022/11/07 01:09:57;;;;;;;17.35;6.88;;;;;;;8.83;100.00;100747.16;5035911;28;20042;-76
2022/11/07 01:12:23;;;;;;;15.05;6.57;;;;;;;8.90;100.00;100775.06;5035762;28;20021;-75
2022/11/07 01:14:48;;;;;;;18.63;7.00;;;;;;;8.87;100.00;100785.56;5036240;28;20048;-77
2022/11/07 01:17:13;;;;;;;15.32;6.20;;;;;;;8.84;100.00;100774.56;5035977;28;20044;-74
2022/11/07 01:19:38;;;;;;;19.60;6.85;;;;;;;8.84;100.00;100790.03;5035864;28;20496;-75
2022/11/07 01:22:04;;;;;;;20.60;7.07;;;;;;;8.80;100.00;100789.38;5035763;28;20064;-77
2022/11/07 01:24:29;;;;;;;14.95;6.53;;;;;;;8.66;100.00;100768.75;5035882;28;20079;-78
2022/11/07 01:26:54;;;;;;;21.30;7.75;;;;;;;8.77;100.00;100799.03;5035914;28;20519;-80
2022/11/07 01:29:20;;;;;;;23.20;7.00;;;;;;;8.61;100.00;100776.69;5035715;28;20026;-79
2022/11/07 01:31:46;;;;;;;22.38;8.35;;;;;;;8.60;100.00;100777.63;5035630;28;20105;-80
2022/11/07 01:34:11;;;;;;;21.58;7.10;;;;;;;8.70;100.00;100797.69;5035693;28;20099;-79
2022/11/07 01:36:36;;;;;;;17.70;6.95;;;;;;;8.62;100.00;100791.22;5035942;28;20041;-80
2022/11/07 01:39:03;;;;;;;19.90;7.78;;;;;;;8.61;100.00;100791.31;5035350;28;20018;-77
2022/11/07 01:41:31;;;;;;;16.98;8.02;;;;;;;8.72;100.00;100811.31;5035465;28;20527;-76
2022/11/07 01:44:22;;;;;;;20.23;6.80;;;;;;;8.77;100.00;100805.00;5035221;28;20029;-76
2022/11/07 01:46:48;;;;;;;20.02;8.23;;;;;;;8.81;100.00;100801.34;5035499;28;20076;-78
2022/11/07 01:49:27;;;;;;;19.33;7.25;;;;;;;8.89;100.00;100804.31;5035471;28;20496;-73
2022/11/07 01:51:58;;;;;;;18.80;7.53;;;;;;;8.88;100.00;100804.41;5035262;28;20026;-79
2022/11/07 01:54:27;;;;;;;24.60;7.63;;;;;;;8.82;100.00;100802.16;5034979;28;20453;-77
2022/11/07 01:56:57;;;;;;;21.70;7.55;;;;;;;8.71;100.00;100794.22;5035425;28;20432;-78
2022/11/07 01:59:27;;;;;;;15.57;6.63;;;;;;;8.78;100.00;100804.09;5016907;28;20045;-79
2022/11/07 02:01:53;;;;;;;17.53;7.57;;;;;;;8.77;100.00;100799.84;5035372;28;20036;-77
2022/11/07 02:04:21;;;;;;;19.38;8.68;;;;;;;8.80;100.00;100794.53;5034422;28;20384;-72
2022/11/07 02:06:53;;;;;;;19.05;7.68;;;;;;;8.77;100.00;100784.41;5034820;28;20132;-71
2022/11/07 02:09:18;;;;;;;;;;;;;;;8.98;100.00;100802.16;5035105;28;20021;-72
2022/11/07 02:11:43;;;;;;;17.95;7.55;;;;;;;9.06;100.00;100793.06;5034922;28;19919;-77
2022/11/07 02:14:15;;;;;;;21.88;7.55;;;;;;;9.20;100.00;100810.28;5034910;28;20030;-73
2022/11/07 02:16:41;;;;;;;22.15;7.75;;;;;;;9.26;100.00;100809.97;5034882;28;20017;-79
2022/11/07 02:19:12;;;;;;;23.48;8.23;;;;;;;9.32;100.00;100811.34;5034727;28;20060;-74
2022/11/07 02:22:05;;;;;;;26.42;8.32;;;;;;;9.39;100.00;100817.78;5034613;28;20389;-75
2022/11/07 02:24:33;;;;;;;17.60;7.20;;;;;;;9.40;100.00;100812.53;5034002;28;20076;-73
2022/11/07 02:27:04;;;;;;;15.02;6.88;;;;;;;9.32;100.00;100806.19;5034765;28;20022;-72
2022/11/07 02:29:32;;;;;;;28.55;7.65;;;;;;;9.23;100.00;100793.81;5034747;28;20113;-72
2022/11/07 02:32:06;;;;;;;25.08;7.63;;;;;;;9.21;100.00;100793.91;5034464;28;20477;-71
2022/11/07 02:34:32;;;;;;;20.40;7.32;;;;;;;9.22;100.00;100813.59;5034216;28;20034;-76
2022/11/07 02:36:59;;;;;;;20.88;6.97;;;;;;;9.10;100.00;100801.44;5034480;28;20435;-73
2022/11/07 02:39:25;;;;;;;23.95;7.35;;;;;;;9.16;100.00;100821.72;5034400;28;20021;-73
2022/11/07 02:41:52;;;;;;;22.60;7.57;;;;;;;9.19;100.00;100806.88;5034268;28;20381;-72
2022/11/07 02:44:18;;;;;;;17.15;7.25;;;;;;;9.16;100.00;100806.25;5034249;28;20117;-73
2022/11/07 02:46:44;;;;;;;24.55;7.78;;;;;;;9.23;100.00;100806.72;5034313;28;20496;-74
2022/11/07 02:49:09;;;;;;;25.77;7.82;;;;;;;9.26;100.00;100809.13;5033930;28;20053;-72
2022/11/07 02:51:34;;;;;;;21.85;7.63;;;;;;;9.23;100.00;100809.28;5034215;28;20026;-71
2022/11/07 02:54:00;;;;;;;21.65;6.93;;;;;;;9.23;100.00;100799.81;5034024;28;20093;-72
2022/11/07 02:56:25;;;;;;;20.30;6.78;;;;;;;9.22;100.00;100811.03;5033889;28;20029;-72
2022/11/07 02:58:51;;;;;;;22.88;7.00;;;;;;;9.15;100.00;100784.81;5033991;28;20017;-73
2022/11/07 03:01:17;;;;;;;22.52;7.18;;;;;;;9.15;100.00;100774.50;5033907;28;20029;-72
2022/11/07 03:03:45;;;;;;;19.33;7.18;;;;;;;9.23;100.00;100789.50;5033778;28;20032;-71
2022/11/07 03:06:15;;;;;;;22.08;7.32;;;;;;;9.23;100.00;100792.06;5033802;28;20053;-71
2022/11/07 03:08:42;;;;;;;27.17;7.18;;;;;;;9.16;100.00;100783.88;5034002;28;20112;-71
2022/11/07 03:11:08;;;;;;;22.02;6.47;;;;;;;9.16;100.00;100795.94;5033702;28;20025;-73
2022/11/07 03:13:34;;;;;;;23.52;7.22;;;;;;;9.17;100.00;100801.00;5033517;28;20465;-73
2022/11/07 03:16:04;;;;;;;20.73;6.70;;;;;;;9.08;100.00;100788.66;5032860;28;20017;-72
2022/11/07 03:18:29;;;;;;;22.38;6.25;;;;;;;9.05;100.00;100790.59;5033237;28;20037;-72
2022/11/07 03:20:54;;;;;;;25.65;7.55;;;;;;;9.04;100.00;100801.78;5033480;28;20025;-72
2022/11/07 03:23:20;;;;;;;25.05;7.90;;;;;;;9.03;100.00;100800.94;5033637;28;20420;-73
2022/11/07 03:25:45;;;;;;;25.17;7.28;;;;;;;9.03;100.00;100808.69;5033360;28;20044;-72
2022/11/07 03:28:10;;;;;;;28.65;7.15;;;;;;;9.02;100.00;100804.44;5033482;28;20040;-73
2022/11/07 03:30:35;;;;;;;23.25;7.53;;;;;;;8.95;100.00;100794.56;5033282;28;20494;-72
2022/11/07 03:33:01;;;;;;;27.05;8.02;;;;;;;9.03;100.00;100806.09;5033339;28;20033;-72
2022/11/07 03:35:26;;;;;;;30.80;8.00;;;;;;;8.95;100.00;100785.13;5033289;28;20026;-71
2022/11/07 03:37:52;;;;;;;27.20;7.05;;;;;;;9.05;100.00;100811.19;5033260;28;20060;-72
2022/11/07 03:40:17;;;;;;;19.67;6.57;;;;;;;9.00;100.00;100800.31;5033471;28;20037;-74
2022/11/07 03:42:44;;;;;;;22.38;6.78;;;;;;;9.02;100.00;100806.19;5033278;28;20374;-72
2022/11/07 03:45:11;;;;;;;22.65;7.38;;;;;;;9.04;100.00;100812.06;5033150;28;20045;-75
2022/11/07 03:47:39;;;;;;;23.35;7.40;;;;;;;8.86;100.00;100781.31;5033173;28;20025;-74
2022/11/07 03:50:06;;;;;;;22.65;7.30;;;;;;;9.14;100.00;100818.38;5033035;28;20155;-73
2022/11/07 03:52:31;;;;;;;24.63;7.35;;;;;;;9.22;100.00;100818.75;5033153;28;20586;-71
2022/11/07 03:54:57;;;;;;;22.05;6.57;;;;;;;9.14;100.00;100797.75;5033181;28;20120;-72
2022/11/07 03:57:22;;;;;;;27.35;6.95;;;;;;;9.33;100.00;100813.81;5032676;28;20037;-73
2022/11/07 03:59:48;;;;;;;23.40;6.53;;;;;;;9.40;100.00;100819.44;5033096;28;20052;-72
2022/11/07 04:02:13;;;;;;;20.50;6.63;;;;;;;9.45;100.00;100822.59;5032897;28;20063;-73
2022/11/07 04:04:39;;;;;;;16.52;5.88;;;;;;;9.47;100.00;100820.75;5032900;28;20033;-73
2022/11/07 04:07:04;;;;;;;26.67;5.88;;;;;;;9.49;100.00;100814.59;5032704;28;20120;-73
2022/11/07 04:09:29;;;;;;;23.27;5.95;;;;;;;9.49;100.00;100809.44;5032950;28;20117;-75
2022/11/07 04:17:24;;;;;;;24.15;6.60;;;;;;;9.65;100.00;100813.69;5033069;28;20503;-72
2022/11/07 04:19:54;;;;;;;24.25;6.20;;;;;;;9.64;100.00;100802.56;5032756;28;20056;-73
2022/11/07 04:22:21;;;;;;;22.75;7.57;;;;;;;9.41;100.00;100774.72;5032946;28;20025;-72
2022/11/07 04:24:47;;;;;;;23.67;5.82;;;;;;;9.60;100.00;100816.53;5032887;28;20036;-73
2022/11/07 04:29:58;;;;;;;19.60;5.32;;;;;;;9.39;100.00;100802.34;5037022;28;20096;-73
2022/11/07 04:32:24;;;;;;;25.60;5.88;;;;;;;9.37;100.00;100799.84;5037028;28;20053;-74
2022/11/07 04:34:50;;;;;;;24.80;5.97;;;;;;;9.46;100.00;100825.09;5036792;28;20112;-76
2022/11/07 04:37:16;;;;;;;28.60;7.18;;;;;;;9.44;100.00;100826.09;5018960;28;20077;-73
2022/11/07 04:39:42;;;;;;;24.55;5.88;;;;;;;9.38;100.00;100818.72;5036645;28;20432;-72
2022/11/07 04:42:07;;;;;;;20.27;5.50;;;;;;;9.30;100.00;100819.16;5036599;28;20055;-73
2022/11/07 04:44:32;;;;;;;27.15;6.88;;;;;;;9.30;100.00;100821.72;5036536;28;20378;-73
2022/11/07 04:46:57;;;;;;;29.15;5.95;;;;;;;9.28;100.00;100822.75;5019079;28;20033;-74
2022/11/07 04:49:23;;;;;;;24.45;6.13;;;;;;;9.28;100.00;100821.00;5036545;28;20072;-72
2022/11/07 04:51:48;;;;;;;24.40;6.10;;;;;;;9.26;100.00;100811.72;5036363;28;20051;-72
2022/11/07 04:54:14;;;;;;;22.05;5.50;;;;;;;9.23;100.00;100812.69;5036228;28;20374;-73
2022/11/07 04:56:40;;;;;;;25.55;5.85;;;;;;;9.30;100.00;100824.31;5036403;28;20428;-72
2022/11/07 04:59:06;;;;;;;27.67;5.82;;;;;;;9.28;100.00;100817.59;5036063;28;20087;-77
2022/11/07 05:01:31;;;;;;;44.10;7.25;;;;;;;9.17;100.00;100802.75;5017840;28;20489;-71
2022/11/07 05:03:57;;;;;;;27.67;6.97;;;;;;;9.36;100.00;100828.28;5036411;28;20108;-76
2022/11/07 05:06:22;;;;;;;21.20;5.78;;;;;;;9.39;100.00;100817.78;5035954;28;20053;-76
2022/11/07 05:08:48;;;;;;;26.15;6.57;;;;;;;9.55;100.00;100835.78;5036047;28;20029;-73
2022/11/07 05:11:13;;;;;;;24.73;5.65;;;;;;;9.59;100.00;100837.25;5036163;28;20017;-79
2022/11/07 05:13:39;;;;;;;27.33;6.15;;;;;;;9.64;100.00;100836.09;5035774;28;20021;-75
2022/11/07 05:16:04;;;;;;;23.48;5.47;;;;;;;9.73;100.00;100837.25;5035816;28;20038;-77
2022/11/07 05:18:29;;;;;;;19.55;5.10;;;;;;;9.75;100.00;100844.00;5035884;28;20100;-72
2022/11/07 05:20:55;;;;;;;22.45;5.50;;;;;;;9.70;100.00;100832.28;5036058;28;20053;-78
2022/11/07 05:23:21;;;;;;;27.13;5.63;;;;;;;9.82;100.00;100838.47;5035840;28;20029;-72
2022/11/07 05:25:51;;;;;;;32.47;5.90;;;;;;;9.86;100.00;100845.94;5017269;28;20477;-73
2022/11/07 05:28:19;;;;;;;26.90;6.60;;;;;;;9.92;100.00;100842.16;5035838;28;20483;-73
2022/11/07 05:30:45;;;;;;;26.15;5.85;;;;;;;9.94;100.00;100846.31;5035722;28;20029;-73
2022/11/07 05:33:12;;;;;;;18.55;4.72;;;;;;;9.73;100.00;100808.88;5035534;28;20037;-73
2022/11/07 05:35:38;;;;;;;22.98;5.47;;;;;;;9.95;100.00;100842.81;5035517;28;20029;-74
2022/11/07 05:38:04;;;;;;;18.50;5.35;;;;;;;9.93;100.00;100846.38;5035617;28;20087;-73
2022/11/07 05:40:30;;;;;;;25.73;5.78;;;;;;;9.93;100.00;100843.81;5034561;28;20026;-71
2022/11/07 05:43:03;;;;;;;21.88;5.10;;;;;;;9.88;100.00;100835.53;5035415;28;20378;-79
2022/11/07 05:45:29;;;;;;;28.17;5.50;;;;;;;9.95;100.00;100834.25;5035223;28;20069;-79
2022/11/07 05:47:59;;;;;;;20.52;5.65;;;;;;;9.84;100.00;100816.00;5035465;28;20473;-80
2022/11/07 05:50:26;;;;;;;24.15;5.20;;;;;;;9.83;100.00;100825.47;5035278;28;20377;-80
2022/11/07 05:52:51;;;;;;;22.92;5.28;;;;;;;9.93;100.00;100843.81;5035286;28;20025;-81
2022/11/07 05:55:17;;;;;;;26.25;6.03;;;;;;;9.91;100.00;100845.66;5035054;28;20500;-77
2022/11/07 05:57:42;;;;;;;24.38;5.00;;;;;;;9.81;100.00;100823.91;5035172;28;20026;-76
2022/11/07 06:00:08;;;;;;;34.50;5.70;;;;;;;9.95;100.00;100840.25;5034982;28;20021;-80
2022/11/07 06:02:34;;;;;;;18.13;4.60;;;;;;;9.99;100.00;100843.44;5035081;28;20489;-78
2022/11/07 06:04:59;;;;;;;24.98;5.28;;;;;;;9.91;100.00;100832.75;5035018;28;20038;-78
2022/11/07 06:07:24;;;;;;;20.88;5.85;;;;;;;9.92;100.00;100837.00;5034810;28;20129;-77
2022/11/07 06:09:50;;;;;;;23.35;5.80;;;;;;;9.88;100.00;100844.09;5034992;28;20060;-80
2022/11/07 06:12:15;;;;;;;23.63;5.15;;;;;;;9.78;100.00;100840.41;5034927;28;20441;-80
2022/11/07 06:14:40;;;;;;;24.98;5.70;;;;;;;9.81;100.00;100842.78;5034579;28;20033;-80
2022/11/07 06:17:06;;;;;;;28.15;6.63;;;;;;;9.79;100.00;100829.16;5034750;28;20076;-78
2022/11/07 06:19:31;;;;;;;23.88;5.18;;;;;;;9.86;100.00;100839.97;5034714;28;20026;-78
2022/11/07 06:21:59;;;;;;;26.58;5.43;;;;;;;9.91;100.00;100841.31;5034917;28;20064;-78
2022/11/07 06:24:24;;;;;;;24.48;5.65;;;;;;;9.96;100.00;100847.06;5034756;28;20036;-72
2022/11/07 06:26:50;;;;;;;26.55;5.30;;;;;;;9.89;100.00;100829.44;5034791;28;20025;-80
2022/11/07 06:29:15;;;;;;;21.67;5.10;;;;;;;9.97;100.00;100840.97;5034504;28;20128;-75
2022/11/07 06:31:40;;;;;;;21.65;5.65;;;;;;;9.99;100.00;100846.03;5034262;28;20175;-79
2022/11/07 06:34:06;;;;;;;28.83;6.10;;;;;;;10.03;100.00;100839.78;5034469;28;20025;-74
2022/11/07 06:36:31;;;;;;;26.90;5.15;;;;;;;10.04;100.00;100839.69;5034771;28;20112;-73
2022/11/07 06:38:56;;;;;;;23.90;5.40;;;;;;;10.10;100.00;100842.81;5034446;28;20028;-76
2022/11/07 06:41:22;;;;;;;24.40;5.40;;;;;;;9.95;100.00;100823.94;5034321;28;20159;-78
2022/11/07 06:43:49;;;;;;;20.70;5.22;;;;;;;10.11;100.00;100841.88;5034362;28;20037;-72
2022/11/07 06:46:16;;;;;;;25.08;5.07;;;;;;;10.15;100.00;100848.53;5033665;28;20061;-72
2022/11/07 06:48:41;;;;;;;24.23;5.97;;;;;;;10.11;100.00;100831.56;5034401;28;20057;-78
2022/11/07 06:51:08;;;;;;;28.90;5.93;;;;;;;10.23;100.00;100864.41;5034116;28;20080;-77
2022/11/07 06:53:34;;;;;;;27.80;6.25;;;;;;;10.21;100.00;100867.03;5034018;28;20061;-72
2022/11/07 06:56:00;;;;;;;22.60;5.30;;;;;;;10.18;100.00;100861.22;5016005;28;20065;-80
2022/11/07 06:58:26;;;;;;;26.45;5.38;;;;;;;10.21;100.00;100861.88;5033950;28;20032;-78
2022/11/07 07:00:52;;;;;;;22.10;5.40;;;;;;;10.23;100.00;100878.13;5033748;28;20050;-79
2022/11/07 07:03:18;;;;;;;25.27;5.50;;;;;;;10.22;100.00;100873.88;5033880;28;20029;-79
2022/11/07 07:05:43;;;;;;;20.52;5.20;;;;;;;10.28;100.00;100878.66;5033768;28;20555;-78
2022/11/07 07:08:10;;;;;;;21.60;5.03;;;;;;;10.28;100.00;100877.84;5034108;28;20109;-81
2022/11/07 07:10:44;;;;;;;26.13;6.03;;;;;;;10.32;100.00;100887.06;5033902;28;20033;-72
2022/11/07 07:13:12;;;;;;;27.20;5.78;;;;;;;10.31;100.00;100883.63;5033624;28;20025;-80
2022/11/07 07:15:38;;;;;;;22.90;5.13;;;;;;;10.33;100.00;100884.41;5033442;28;20026;-81
2022/11/07 07:18:04;;;;;;;21.80;4.82;;;;;;;10.35;100.00;100886.88;5033628;28;20024;-81
2022/11/07 07:20:29;;;;;;;19.85;5.05;;;;;;;10.38;100.00;100891.84;5033924;28;20029;-76
2022/11/07 07:22:55;;;;;;;29.13;6.13;;;;;;;10.42;100.00;100890.75;5033968;28;20025;-74
2022/11/07 07:25:20;;;;;;;22.58;5.55;;;;;;;10.49;100.00;100893.78;5033744;28;20496;-79
2022/11/07 07:27:46;;;;;;;25.17;5.38;;;;;;;10.54;100.00;100882.25;5033500;28;20026;-80
2022/11/07 07:30:12;;;;;;;25.88;6.22;;;;;;;10.58;100.00;100888.88;5033373;28;20074;-76
2022/11/07 07:32:37;;;;;;;27.90;6.50;;;;;;;10.65;100.00;100894.50;5033309;28;20035;-69
2022/11/07 07:35:04;;;;;;;23.15;5.40;;;;;;;10.63;100.00;100886.84;5033401;28;20385;-77
2022/11/07 07:37:29;;;;;;;21.05;4.70;;;;;;;10.70;100.00;100894.19;5033270;28;20036;-74
2022/11/07 07:39:55;;;;;;;20.42;4.85;;;;;;;10.79;100.00;100912.53;5033259;28;20029;-70
2022/11/07 07:42:20;;;;;;;24.33;5.03;;;;;;;10.79;100.00;100897.03;5033101;28;20026;-78
2022/11/07 07:44:45;;;;;;;28.48;5.65;;;;;;;10.72;100.00;100882.03;5033144;28;20080;-75
2022/11/07 07:47:11;;;;;;;24.15;5.25;;;;;;;10.80;100.00;100901.28;5032979;28;20048;-77
2022/11/07 07:49:36;;;;;;;24.25;5.13;;;;;;;10.69;100.00;100888.19;5033419;28;20446;-71
2022/11/07 07:52:01;;;;;;;24.20;4.70;;;;;;;10.79;100.00;100909.13;5033186;28;20099;-77
2022/11/07 07:54:27;;;;;;;24.17;5.30;;;;;;;10.80;100.00;100909.03;5033175;28;20466;-78
2022/11/07 07:56:52;;;;;;;25.85;5.13;;;;;;;10.85;100.00;100916.50;5032713;28;20025;-74
2022/11/07 07:59:17;;;;;;;25.20;5.05;;;;;;;10.76;100.00;100902.41;5033059;28;20481;-72
2022/11/07 08:01:43;;;;;;;26.85;5.22;;;;;;;10.92;100.00;100912.63;5032555;28;20504;-77
2022/11/07 08:04:08;;;;;;;22.08;5.20;;;;;;;11.03;100.00;100927.44;5031366;28;20043;-72
2022/11/07 08:06:36;;;;;;;22.17;4.90;;;;;;;11.14;100.00;100909.50;5032347;28;20481;-75
2022/11/07 08:09:02;;;;;;;20.05;4.85;;;;;;;11.00;100.00;100883.69;5032805;28;20033;-71
2022/11/07 08:11:27;;;;;;;27.55;6.43;;;;;;;11.22;100.00;100911.59;5032869;28;20031;-76
2022/11/07 08:13:53;;;;;;;27.08;5.97;;;;;;;11.25;100.00;100929.47;5032709;28;20448;-76
2022/11/07 08:16:18;;;;;;;19.83;5.13;;;;;;;11.29;100.00;100925.75;5032691;28;20030;-75
2022/11/07 08:18:43;;;;;;;21.10;4.93;;;;;;;11.32;100.00;100920.41;5032497;28;20425;-69
2022/11/07 08:21:09;;;;;;;37.40;5.47;;;;;;;11.39;100.00;100921.66;5032885;28;20033;-73
2022/11/07 08:23:35;;;;;;;26.85;4.93;;;;;;;11.42;100.00;100932.63;5032914;28;20076;-72
2022/11/07 08:26:03;;;;;;;25.98;4.82;;;;;;;11.40;100.00;100928.47;5032651;28;20025;-71
2022/11/07 08:28:30;;;;;;;24.65;5.65;;;;;;;11.50;100.00;100934.69;5021775;28;20072;-77
2022/11/07 08:31:10;;;;;;;22.60;4.93;;;;;;;11.46;100.00;100918.56;4994881;28;20048;-72
2022/11/07 08:33:36;;;;;;;25.17;4.85;;;;;;;11.53;100.00;100934.53;5012607;28;20030;-73
2022/11/07 08:36:04;;;;;;;21.55;4.97;;;;;;;11.45;100.00;100923.84;5013005;28;20376;-75
2022/11/07 08:38:30;;;;;;;28.00;5.18;;;;;;;11.48;100.00;100945.16;5012979;28;20024;-74
2022/11/07 08:40:57;;;;;;;23.02;4.70;;;;;;;11.47;100.00;100955.59;5012958;28;20026;-73
2022/11/07 08:43:22;;;;;;;24.17;5.00;;;;;;;11.58;100.00;100950.56;5012859;28;20436;-75
2022/11/07 08:45:48;;;;;;;24.58;5.05;;;;;;;11.75;100.00;100950.28;5012930;28;20476;-72
2022/11/07 08:48:15;;;;;;;18.90;4.38;;;;;;;11.80;100.00;100947.44;5012560;28;20101;-74
2022/11/07 08:50:41;;;;;;;22.65;4.55;;;;;;;11.89;100.00;100959.75;5013034;28;20030;-73
2022/11/07 08:53:07;;;;;;;23.48;4.78;;;;;;;12.00;100.00;100969.41;5012733;28;20088;-72
2022/11/07 08:55:32;;;;;;;22.52;4.85;;;;;;;12.08;100.00;100972.28;5012919;28;20030;-73
2022/11/07 08:58:00;;;;;;;26.35;4.43;;;;;;;12.12;100.00;100958.22;5012756;28;20046;-75
2022/11/07 09:00:25;;;;;;;19.33;4.38;;;;;;;12.27;100.00;100979.66;5012706;28;20018;-74
2022/11/07 09:02:51;;;;;;;21.17;5.10;;;;;;;12.27;100.00;100979.66;5012485;28;20037;-73
2022/11/07 09:05:16;;;;;;;23.75;5.28;;;;;;;12.09;99.80;100965.34;5012945;28;20033;-74
2022/11/07 09:07:41;;;;;;;21.38;5.00;;;;;;;12.19;100.00;100990.56;5012447;28;20501;-73
2022/11/07 09:10:07;;;;;;;27.38;6.25;;;;;;;12.06;100.00;100982.75;5013056;28;20033;-74
2022/11/07 09:12:33;;;;;;;19.45;5.15;;;;;;;12.15;100.00;100999.44;5012725;28;20108;-74
2022/11/07 09:14:58;;;;;;;20.77;5.60;;;;;;;12.06;100.00;100969.81;5015190;28;20045;-77
2022/11/07 09:17:23;;;;;;;19.33;5.03;;;;;;;12.15;100.00;100983.06;5015959;28;20025;-77
2022/11/07 09:19:49;;;;;;;23.50;5.00;;;;;;;12.10;100.00;100978.22;5015984;28;20037;-72
2022/11/07 09:22:14;;;;;;;21.73;5.45;;;;;;;12.11;100.00;100972.13;5025425;28;20029;-73
2022/11/07 09:24:39;;;;;;;27.13;6.22;;;;;;;12.10;99.93;100973.03;5036143;28;20025;-75
2022/11/07 09:27:05;;;;;;;20.25;4.65;;;;;;;12.26;100.00;100990.94;5035808;28;20481;-74
2022/11/07 09:29:30;;;;;;;21.13;5.50;;;;;;;12.18;99.98;100975.09;5035335;28;20060;-75
2022/11/07 09:31:55;;;;;;;25.50;5.00;;;;;;;12.23;100.00;100992.00;5035529;28;20067;-74
2022/11/07 09:34:21;;;;;;;28.25;5.88;;;;;;;12.18;100.00;100991.47;5034932;28;20095;-75
2022/11/07 09:36:46;;;;;;;18.20;4.50;;;;;;;12.19;100.00;100995.72;5035864;28;20044;-74
2022/11/07 09:39:11;;;;;;;17.42;4.93;;;;;;;12.15;100.00;100993.44;5035739;28;20116;-75
2022/11/07 09:42:10;;;;;;;24.70;5.70;;;;;;;12.17;100.00;101010.50;5035660;28;20104;-74
2022/11/07 09:44:57;;;;;;;27.05;6.05;;;;;;;12.18;100.00;100999.22;4955228;29;20067;-75
2022/11/07 09:47:34;;;;;;;16.33;4.70;;;;;;;11.93;100.00;100981.94;4955245;29;20046;-74
2022/11/07 09:50:05;;;;;;;29.52;5.88;;;;;;;12.13;100.00;101003.91;4955176;29;20038;-73
2022/11/07 09:52:45;;;;;;;21.40;5.20;;;;;;;12.19;100.00;101013.84;4955284;29;20058;-72
2022/11/07 09:55:35;;;;;;;24.52;5.72;;;;;;;12.07;100.00;100987.00;4955016;29;20043;-74
2022/11/07 09:58:04;;;;;;;25.45;4.72;;;;;;;12.32;100.00;101013.84;4955061;29;20090;-75
2022/11/07 10:00:31;;;;;;;26.50;6.07;;;;;;;12.40;99.89;101013.34;4955048;29;20027;-75
2022/11/07 10:02:58;;;;;;;23.42;5.53;;;;;;;12.44;99.62;101014.78;4954678;29;20047;-79
2022/11/07 10:05:49;;;;;;;22.80;4.82;;;;;;;12.52;99.81;101021.09;4954987;29;20368;-82
2022/11/07 10:08:25;;;;;;;26.13;5.22;;;;;;;12.55;98.87;101020.06;4954549;29;20051;-80
2022/11/07 10:11:02;;;;;;;24.95;5.72;;;;;;;12.62;98.43;101010.94;4954844;29;20027;-79
2022/11/07 10:13:36;;;;;;;25.00;4.82;;;;;;;12.66;97.66;101009.78;4954674;29;20035;-81
2022/11/07 10:16:23;;;;;;;16.70;4.97;;;;;;;12.60;97.22;100995.50;4954756;29;20126;-81
2022/11/07 10:18:57;;;;;;;28.60;5.70;;;;;;;12.79;97.27;101017.56;4954661;29;20031;-74
2022/11/07 10:21:31;;;;;;;20.17;4.95;;;;;;;12.89;96.66;101027.19;4995213;28;20044;-76
2022/11/07 10:24:47;;;;;;;22.98;5.35;;;;;;;13.08;96.98;101015.53;5034778;28;20033;-79
2022/11/07 10:27:13;;;;;;;18.95;4.40;;;;;;;13.00;95.55;101002.28;4954027;29;20052;-72
2022/11/07 10:29:42;;;;;;;23.58;4.75;;;;;;;13.14;94.67;101026.28;4954463;28;20036;-78
2022/11/07 10:32:21;;;;;;;26.35;5.15;;;;;;;13.06;95.08;101012.19;4954430;29;20035;-74
2022/11/07 10:34:54;;;;;;;26.38;4.88;;;;;;;13.13;95.21;101027.22;4954001;29;20079;-76
2022/11/07 10:37:20;;;;;;;25.35;4.68;;;;;;;13.12;94.78;101028.16;4954251;29;20507;-80
2022/11/07 10:39:45;;;;;;;21.73;4.18;;;;;;;13.14;94.65;101036.66;4954344;29;20074;-73
2022/11/07 10:42:26;;;;;;;23.33;4.55;;;;;;;13.14;94.97;101047.03;4954476;29;20097;-81
2022/11/07 10:44:53;;;;;;;26.63;5.47;;;;;;;13.07;95.75;101030.22;4954103;29;20035;-74
2022/11/07 10:47:22;;;;;;;19.95;5.55;;;;;;;13.24;94.46;101042.06;4952575;29;20034;-78
2022/11/07 10:50:00;;;;;;;20.40;4.43;;;;;;;13.40;93.51;101047.00;4954035;29;20023;-70
2022/11/07 10:52:27;;;;;;;19.35;4.40;;;;;;;13.53;92.91;101046.94;4953688;29;20094;-74
2022/11/07 10:55:13;;;;;;;15.77;4.60;;;;;;;13.67;93.01;101044.19;4953723;29;20039;-69
2022/11/07 10:57:38;;;;;;;21.45;5.20;;;;;;;13.83;91.37;101030.91;4953789;29;20055;-75
2022/11/07 11:00:16;;;;;;;21.73;5.63;;;;;;;13.94;89.39;101047.34;4974132;23;20033;-75
2022/11/07 11:02:47;;;;;;;23.70;5.93;;;;;;;13.89;90.26;101053.84;5053735;28;20029;-73
2022/11/07 11:05:21;;;;;;;23.00;5.22;;;;;;;13.83;90.41;101044.72;5053606;28;20060;-73
2022/11/07 11:07:47;;;;;;;26.88;5.85;;;;;;;13.69;90.57;101029.34;5053810;28;20028;-78
2022/11/07 11:10:21;;;;;;;22.63;4.50;;;;;;;13.74;90.04;101041.00;5053899;28;20044;-76
2022/11/07 11:12:48;;;;;;;20.23;4.25;;;;;;;13.60;90.99;101027.41;5053630;28;20035;-74
2022/11/07 11:15:17;;;;;;;26.95;5.53;;;;;;;13.67;89.78;101036.41;5053565;28;20116;-74
2022/11/07 11:17:44;;;;;;;22.52;5.13;;;;;;;13.63;90.40;101020.22;5053840;28;20031;-73
2022/11/07 11:20:28;;;;;;;21.77;5.00;;;;;;;13.80;89.53;101025.94;5053540;28;20422;-72
2022/11/07 11:22:53;;;;;;;17.10;3.63;;;;;;;13.91;89.95;101028.59;5053574;28;20082;-74
2022/11/07 11:25:20;;;;;;;16.15;4.40;;;;;;;13.97;88.19;101020.34;5053566;28;20068;-73
2022/11/07 11:27:56;;;;;;;21.63;4.25;;;;;;;14.05;88.11;101023.19;5052239;28;20082;-74